Time;durP1;ratioP1;P1;durP2;ratioP2;P2;SDS_P1;SDS_P2;PMS_P1;PMS_P2;Temp;Humidity;BMP_temperature;BMP_pressure;BME280_temperature;BME280_humidity;BME280_pressure;Samples;Min_cycle;Max_cycle;Signal;HPM_P1;HPM_P2
2023/04/03 00:01:17;;;;;;;6.10;1.45;;;1.10;99.90;;;;;;5058095;28;20055;-63
2023/04/03 00:03:43;;;;;;;2.95;1.23;;;1.10;99.90;;;;;;5056204;28;20119;-64
2023/04/03 00:06:10;;;;;;;4.50;1.45;;;1.10;99.90;;;;;;5059050;28;20040;-65
2023/04/03 00:08:37;;;;;;;7.75;1.48;;;1.10;99.90;;;;;;5058217;28;20041;-65
2023/04/03 00:11:03;;;;;;;8.75;1.52;;;1.00;99.90;;;;;;5057069;28;20497;-65
2023/04/03 00:13:29;;;;;;;16.33;1.88;;;1.00;99.90;;;;;;5053571;28;20412;-64
2023/04/03 00:15:55;;;;;;;7.88;1.58;;;1.00;99.90;;;;;;5060458;28;20045;-63
2023/04/03 00:18:21;;;;;;;8.05;1.45;;;0.90;99.90;;;;;;5050862;28;20485;-65
2023/04/03 00:20:47;;;;;;;5.50;1.30;;;0.80;99.90;;;;;;5048303;28;20040;-66
2023/04/03 00:23:13;;;;;;;12.68;1.60;;;0.80;99.90;;;;;;5042493;28;20449;-70
2023/04/03 00:25:41;;;;;;;4.57;1.25;;;0.70;99.90;;;;;;5047469;28;20045;-66
2023/04/03 00:28:07;;;;;;;6.20;1.73;;;0.80;99.90;;;;;;5047985;28;20032;-66
2023/04/03 00:30:33;;;;;;;6.53;1.75;;;0.80;99.90;;;;;;5047062;28;20041;-66
2023/04/03 00:33:00;;;;;;;7.00;1.98;;;0.80;99.90;;;;;;5045875;28;20041;-64
2023/04/03 00:35:26;;;;;;;7.03;1.30;;;0.70;99.90;;;;;;5048143;28;20037;-66
2023/04/03 00:37:53;;;;;;;7.63;1.58;;;0.70;99.90;;;;;;5045779;28;20029;-66
2023/04/03 00:40:20;;;;;;;6.03;1.83;;;0.60;99.90;;;;;;5048380;28;20087;-64
2023/04/03 00:42:48;;;;;;;10.50;1.48;;;0.60;99.90;;;;;;5044081;28;20048;-64
2023/04/03 00:45:31;;;;;;;6.38;1.63;;;0.60;99.90;;;;;;5044410;28;20033;-65
2023/04/03 00:47:59;;;;;;;5.72;1.63;;;0.50;99.90;;;;;;5040362;28;20151;-64
2023/04/03 00:50:27;;;;;;;13.00;1.90;;;0.50;99.90;;;;;;5047016;28;20068;-63
2023/04/03 00:52:53;;;;;;;7.47;2.00;;;0.50;99.90;;;;;;5042690;28;20036;-64
2023/04/03 00:55:19;;;;;;;7.03;1.60;;;0.40;99.90;;;;;;5046053;28;20094;-64
2023/04/03 00:57:46;;;;;;;7.18;1.63;;;0.40;99.90;;;;;;5046226;28;20067;-64
2023/04/03 01:00:16;;;;;;;3.92;1.80;;;0.40;99.90;;;;;;5047246;28;20128;-63
2023/04/03 01:02:41;;;;;;;4.90;1.73;;;0.40;99.90;;;;;;5042546;28;20045;-65
2023/04/03 01:05:08;;;;;;;3.78;1.23;;;0.30;99.90;;;;;;5048344;28;20033;-65
2023/04/03 01:07:35;;;;;;;11.38;2.08;;;0.30;99.90;;;;;;5046084;28;20044;-64
2023/04/03 01:10:06;;;;;;;4.47;1.55;;;0.20;99.90;;;;;;5047590;28;20106;-63
2023/04/03 01:12:35;;;;;;;5.35;1.55;;;0.20;99.90;;;;;;5036321;28;20116;-63
2023/04/03 01:15:07;;;;;;;6.50;1.60;;;0.20;99.90;;;;;;5048034;28;20045;-63
2023/04/03 01:17:43;;;;;;;10.30;1.77;;;0.10;99.90;;;;;;5044912;28;20040;-63
2023/04/03 01:20:30;;;;;;;8.35;1.90;;;0.10;99.90;;;;;;5043085;28;20110;-63
2023/04/03 01:23:08;;;;;;;6.43;1.73;;;0.10;99.90;;;;;;5038305;28;20041;-63
2023/04/03 01:25:36;;;;;;;3.85;1.42;;;0.00;99.90;;;;;;5046866;28;20044;-64
2023/04/03 01:28:06;;;;;;;12.45;1.98;;;0.00;99.90;;;;;;5041010;28;20029;-63
2023/04/03 01:30:37;;;;;;;4.30;1.35;;;0.00;99.90;;;;;;5045324;28;20044;-64
2023/04/03 01:33:02;;;;;;;4.45;1.40;;;0.00;99.90;;;;;;5042435;28;20056;-64
2023/04/03 01:35:28;;;;;;;8.13;1.85;;;-0.10;99.90;;;;;;5041961;28;20577;-63
2023/04/03 01:37:54;;;;;;;5.72;1.73;;;-0.10;99.90;;;;;;5040139;28;20141;-64
2023/04/03 01:40:19;;;;;;;5.57;2.15;;;-0.10;99.90;;;;;;5046784;28;20033;-63
2023/04/03 01:42:45;;;;;;;4.72;1.45;;;-0.10;99.90;;;;;;5034898;28;20048;-63
2023/04/03 01:45:11;;;;;;;5.75;1.45;;;-0.10;99.90;;;;;;5046134;28;20025;-63
2023/04/03 01:47:36;;;;;;;7.22;1.58;;;-0.10;99.90;;;;;;5045145;28;20049;-63
2023/04/03 01:50:02;;;;;;;4.68;1.55;;;-0.20;99.90;;;;;;5045567;28;20071;-65
2023/04/03 01:52:28;;;;;;;8.70;1.73;;;-0.20;99.90;;;;;;5043600;28;20033;-63
2023/04/03 01:54:53;;;;;;;4.53;1.60;;;-0.20;99.90;;;;;;5046467;28;20029;-63
2023/04/03 01:57:19;;;;;;;5.95;1.65;;;-0.30;99.90;;;;;;5045070;28;20160;-63
2023/04/03 01:59:45;;;;;;;8.35;1.50;;;-0.30;99.90;;;;;;5045663;28;20090;-64
2023/04/03 02:02:12;;;;;;;11.85;2.50;;;-0.30;99.90;;;;;;5041955;28;20091;-63
2023/04/03 02:04:37;;;;;;;9.77;3.10;;;-0.30;99.90;;;;;;5045147;28;20041;-65
2023/04/03 02:07:04;;;;;;;7.82;1.75;;;-0.30;99.90;;;;;;5044270;28;20047;-63
2023/04/03 02:09:29;;;;;;;3.63;1.35;;;-0.30;99.90;;;;;;5044922;28;20037;-63
2023/04/03 02:11:55;;;;;;;9.93;2.00;;;-0.40;99.90;;;;;;5043833;28;20102;-63
2023/04/03 02:14:23;;;;;;;8.20;2.13;;;-0.40;99.90;;;;;;5044957;28;20045;-63
2023/04/03 02:16:49;;;;;;;5.80;1.75;;;-0.40;99.90;;;;;;5045519;28;20599;-63
2023/04/03 02:19:15;;;;;;;3.90;1.50;;;-0.40;99.90;;;;;;5044391;28;20051;-63
2023/04/03 02:21:41;;;;;;;9.95;1.80;;;-0.40;99.90;;;;;;5037597;28;20086;-64
2023/04/03 02:24:07;;;;;;;11.02;1.75;;;-0.40;99.90;;;;;;5041903;28;20381;-65
2023/04/03 02:26:32;;;;;;;9.35;1.48;;;-0.50;99.90;;;;;;5039483;28;20045;-65
2023/04/03 02:28:58;;;;;;;5.95;2.63;;;-0.50;99.90;;;;;;5046029;28;20060;-65
2023/04/03 02:31:23;;;;;;;4.38;1.48;;;-0.50;99.90;;;;;;5045034;28;20036;-65
2023/04/03 02:33:49;;;;;;;11.27;2.35;;;-0.50;99.90;;;;;;5043857;28;20543;-65
2023/04/03 02:36:16;;;;;;;14.05;2.22;;;-0.50;99.90;;;;;;5045267;28;20045;-67
2023/04/03 02:38:41;;;;;;;7.88;2.25;;;-0.60;99.90;;;;;;5044539;28;20071;-65
2023/04/03 02:41:10;;;;;;;6.13;1.73;;;-0.60;99.90;;;;;;5041170;28;20091;-63
2023/04/03 02:43:36;;;;;;;4.30;1.60;;;-0.60;99.90;;;;;;5041899;28;20132;-63
2023/04/03 02:46:02;;;;;;;7.43;1.80;;;-0.60;99.90;;;;;;5041778;28;20044;-63
2023/04/03 02:48:27;;;;;;;10.18;1.67;;;-0.60;99.90;;;;;;5041447;28;20424;-64
2023/04/03 02:50:53;;;;;;;11.52;2.10;;;-0.60;99.90;;;;;;5047378;28;20029;-64
2023/04/03 02:53:19;;;;;;;7.28;2.08;;;-0.60;99.90;;;;;;5040353;28;20509;-64
2023/04/03 02:55:45;;;;;;;11.27;2.08;;;-0.60;99.90;;;;;;5041142;28;20049;-63
2023/04/03 02:58:11;;;;;;;10.65;2.13;;;-0.60;99.90;;;;;;5045024;28;20124;-63
2023/04/03 03:00:37;;;;;;;7.28;2.30;;;-0.70;99.90;;;;;;5043597;28;20040;-63
2023/04/03 03:03:04;;;;;;;9.65;1.88;;;-0.70;99.90;;;;;;5040912;28;20644;-63
2023/04/03 03:05:29;;;;;;;11.88;2.58;;;-0.70;99.90;;;;;;5042710;28;20032;-64
2023/04/03 03:07:55;;;;;;;6.43;1.90;;;-0.60;99.90;;;;;;5044307;28;20114;-65
2023/04/03 03:10:22;;;;;;;6.43;1.90;;;-0.70;99.90;;;;;;5046797;28;20088;-64
2023/04/03 03:12:47;;;;;;;8.57;3.05;;;-0.70;99.90;;;;;;5040124;28;20170;-62
2023/04/03 03:15:13;;;;;;;12.25;2.10;;;-0.70;99.90;;;;;;5039800;28;20033;-64
2023/04/03 03:17:38;;;;;;;6.55;1.92;;;-0.70;99.90;;;;;;5039181;28;20128;-64
2023/04/03 03:20:05;;;;;;;6.78;2.08;;;-0.80;99.90;;;;;;5044275;28;20401;-63
2023/04/03 03:22:31;;;;;;;9.77;2.03;;;-0.80;99.90;;;;;;5040404;28;20053;-63
2023/04/03 03:24:56;;;;;;;4.00;1.38;;;-0.80;99.90;;;;;;5046231;28;20043;-64
2023/04/03 03:27:22;;;;;;;5.63;1.75;;;-0.80;99.90;;;;;;5043400;28;20408;-61
2023/04/03 03:29:48;;;;;;;9.07;2.00;;;-0.80;99.90;;;;;;5047356;28;20069;-61
2023/04/03 03:32:13;;;;;;;6.82;2.22;;;-0.80;99.90;;;;;;5036479;28;20034;-63
2023/04/03 03:34:39;;;;;;;6.90;1.65;;;-0.80;99.90;;;;;;5042384;28;20065;-62
2023/04/03 03:37:05;;;;;;;5.72;1.90;;;-0.90;99.90;;;;;;5038698;28;20055;-63
2023/04/03 03:39:30;;;;;;;5.55;1.65;;;-0.80;99.90;;;;;;5044936;28;20099;-62
2023/04/03 03:41:56;;;;;;;10.15;2.20;;;-0.90;99.90;;;;;;5041778;28;20072;-62
2023/04/03 03:44:21;;;;;;;12.00;2.30;;;-0.90;99.90;;;;;;5042058;28;20503;-62
2023/04/03 03:46:47;;;;;;;8.00;1.90;;;-0.90;99.90;;;;;;5038118;28;20040;-65
2023/04/03 03:49:12;;;;;;;8.57;2.00;;;-0.90;99.90;;;;;;5044160;28;20068;-63
2023/04/03 03:51:39;;;;;;;7.70;1.77;;;-0.90;99.90;;;;;;5043473;28;20516;-63
2023/04/03 03:54:05;;;;;;;11.25;2.58;;;-0.90;99.90;;;;;;5046704;28;20412;-63
2023/04/03 03:56:31;;;;;;;8.20;2.10;;;-0.90;99.90;;;;;;5041988;28;20041;-61
2023/04/03 03:58:56;;;;;;;9.02;2.05;;;-0.90;99.90;;;;;;5048430;28;20041;-64
2023/04/03 04:01:23;;;;;;;5.93;1.98;;;-1.00;99.90;;;;;;5047072;28;20041;-64
2023/04/03 04:03:49;;;;;;;10.77;2.15;;;-1.00;99.90;;;;;;5046599;28;20081;-63
2023/04/03 04:06:15;;;;;;;9.10;2.35;;;-1.10;99.90;;;;;;5046615;28;20778;-64
2023/04/03 04:08:41;;;;;;;6.75;1.67;;;-1.00;99.90;;;;;;5046759;28;20045;-64
2023/04/03 04:11:07;;;;;;;5.43;2.13;;;-1.20;99.90;;;;;;5042294;28;20114;-63
2023/04/03 04:13:32;;;;;;;9.55;2.10;;;-1.20;99.90;;;;;;5042162;28;20548;-64
2023/04/03 04:15:58;;;;;;;8.90;2.13;;;-1.20;99.90;;;;;;5048000;28;20044;-64
2023/04/03 04:18:24;;;;;;;9.90;2.15;;;-1.20;99.90;;;;;;5046499;28;20047;-64
2023/04/03 04:20:49;;;;;;;8.63;2.22;;;-1.20;99.90;;;;;;5048161;28;20033;-64
2023/04/03 04:23:17;;;;;;;4.57;1.90;;;-1.20;99.90;;;;;;5047210;28;20028;-63
2023/04/03 04:25:45;;;;;;;11.48;2.03;;;-1.20;99.90;;;;;;5048515;28;20191;-62
2023/04/03 04:28:11;;;;;;;16.40;2.85;;;-1.30;99.90;;;;;;5048913;28;20044;-62
2023/04/03 04:30:37;;;;;;;11.10;2.15;;;-1.30;99.90;;;;;;5046549;28;20528;-64
2023/04/03 04:33:02;;;;;;;8.80;2.35;;;-1.20;99.90;;;;;;5046676;28;20037;-64
2023/04/03 04:35:28;;;;;;;7.45;2.65;;;-1.30;99.90;;;;;;5049597;28;20464;-63
2023/04/03 04:37:54;;;;;;;6.50;2.25;;;-1.40;99.90;;;;;;5047564;28;20127;-63
2023/04/03 04:40:20;;;;;;;10.70;2.53;;;-1.40;99.90;;;;;;5048558;28;20033;-66
2023/04/03 04:42:46;;;;;;;6.43;1.90;;;-1.40;99.90;;;;;;5045870;28;20041;-62
2023/04/03 04:45:12;;;;;;;6.47;2.17;;;-1.40;99.90;;;;;;5048530;28;20033;-65
2023/04/03 04:47:37;;;;;;;10.27;2.00;;;-1.40;99.90;;;;;;5046258;28;20070;-67
2023/04/03 04:50:03;;;;;;;11.18;1.92;;;-1.40;99.90;;;;;;5047789;28;20140;-64
2023/04/03 04:52:29;;;;;;;9.07;2.47;;;-1.40;99.90;;;;;;5043529;28;20041;-61
2023/04/03 04:54:54;;;;;;;9.25;2.05;;;-1.30;99.90;;;;;;5045467;28;20041;-64
2023/04/03 04:57:20;;;;;;;14.20;2.35;;;-1.30;99.90;;;;;;5044849;28;20036;-63
2023/04/03 04:59:45;;;;;;;9.73;2.63;;;-1.30;99.90;;;;;;5049937;28;20094;-65
2023/04/03 05:02:11;;;;;;;8.90;2.13;;;-1.30;99.90;;;;;;5043337;28;20041;-63
2023/04/03 05:04:37;;;;;;;11.95;2.05;;;-1.20;99.90;;;;;;5045166;28;20040;-64
2023/04/03 05:07:02;;;;;;;6.97;1.83;;;-1.20;99.90;;;;;;5045345;28;20072;-64
2023/04/03 05:09:28;;;;;;;10.50;2.17;;;-1.20;99.90;;;;;;5047351;28;20045;-63
2023/04/03 05:11:54;;;;;;;6.07;2.00;;;-1.10;99.90;;;;;;5045303;28;20218;-63
2023/04/03 05:14:19;;;;;;;7.65;1.90;;;-1.10;99.90;;;;;;5043530;28;20033;-64
2023/04/03 05:16:45;;;;;;;7.00;1.98;;;-1.00;99.90;;;;;;5036729;28;20091;-65
2023/04/03 05:19:11;;;;;;;10.57;2.13;;;-1.10;99.90;;;;;;5045507;28;20044;-62
2023/04/03 05:21:36;;;;;;;11.35;2.10;;;-1.00;99.90;;;;;;5046277;28;20045;-59
2023/04/03 05:24:02;;;;;;;9.65;2.20;;;-1.00;99.90;;;;;;5041535;28;20045;-61
2023/04/03 05:26:29;;;;;;;11.98;2.47;;;-1.00;99.90;;;;;;5046726;28;20040;-63
2023/04/03 05:28:55;;;;;;;12.48;2.30;;;-1.10;99.90;;;;;;5045208;28;20457;-61
2023/04/03 05:31:21;;;;;;;14.45;2.80;;;-1.10;99.90;;;;;;5044105;28;20174;-61
2023/04/03 05:33:46;;;;;;;13.88;2.45;;;-1.10;99.90;;;;;;5041616;28;20075;-62
2023/04/03 05:36:13;;;;;;;6.95;2.20;;;-1.10;99.90;;;;;;5040824;28;20124;-62
2023/04/03 05:38:39;;;;;;;6.22;2.22;;;-1.10;99.90;;;;;;5043750;28;20072;-62
2023/04/03 05:41:04;;;;;;;9.07;1.92;;;-0.90;99.90;;;;;;5046966;28;20542;-63
2023/04/03 05:43:30;;;;;;;7.57;2.22;;;-0.80;99.90;;;;;;5039825;28;20032;-63
2023/04/03 05:45:56;;;;;;;8.00;2.05;;;-0.90;99.90;;;;;;5039888;28;20728;-63
2023/04/03 05:48:21;;;;;;;8.10;2.10;;;-0.80;99.90;;;;;;5041918;28;20567;-63
2023/04/03 05:50:47;;;;;;;7.70;1.88;;;-0.80;99.90;;;;;;5046415;28;20381;-63
2023/04/03 05:53:22;;;;;;;6.45;2.15;;;-0.80;99.90;;;;;;5044549;28;20714;-62
2023/04/03 05:55:47;;;;;;;9.27;1.88;;;-0.70;99.90;;;;;;5044224;28;20124;-62
2023/04/03 05:58:13;;;;;;;8.57;1.67;;;-0.70;99.90;;;;;;5042972;28;20048;-63
2023/04/03 06:00:39;;;;;;;11.82;2.47;;;-0.60;99.90;;;;;;5042888;28;20074;-63
2023/04/03 06:03:06;;;;;;;6.20;1.58;;;-0.70;99.90;;;;;;5036940;28;20116;-61
2023/04/03 06:05:31;;;;;;;6.82;2.58;;;-0.70;99.90;;;;;;5046643;28;20033;-61
2023/04/03 06:07:57;;;;;;;5.60;1.73;;;-0.70;99.90;;;;;;5042635;28;20060;-61
2023/04/03 06:10:23;;;;;;;9.07;2.33;;;-0.70;99.90;;;;;;5046357;28;20041;-62
2023/04/03 06:12:49;;;;;;;9.20;2.17;;;-0.60;99.90;;;;;;5040863;28;20033;-63
2023/04/03 06:15:16;;;;;;;10.80;1.92;;;-0.70;99.90;;;;;;5039593;28;20086;-62
2023/04/03 06:17:42;;;;;;;8.88;2.05;;;-0.70;99.90;;;;;;5040611;28;20662;-61
2023/04/03 06:20:09;;;;;;;9.40;1.80;;;-0.70;99.90;;;;;;5046450;28;20041;-59
2023/04/03 06:22:35;;;;;;;9.90;2.08;;;-0.60;99.90;;;;;;5034208;28;20060;-62
2023/04/03 06:25:01;;;;;;;7.65;2.10;;;-0.80;99.90;;;;;;5046455;28;20033;-61
2023/04/03 06:27:26;;;;;;;5.93;2.25;;;-0.70;99.90;;;;;;5044223;28;20045;-61
2023/04/03 06:29:52;;;;;;;13.20;3.33;;;-0.80;99.90;;;;;;5047624;28;20638;-65
2023/04/03 06:32:18;;;;;;;7.93;1.98;;;-0.70;99.90;;;;;;5043147;28;20029;-61
2023/04/03 06:34:43;;;;;;;16.55;2.28;;;-0.60;99.90;;;;;;5042469;28;20045;-60
2023/04/03 06:37:20;;;;;;;7.65;1.50;;;-0.60;99.90;;;;;;5038156;28;20041;-63
2023/04/03 06:39:47;;;;;;;6.78;2.53;;;-0.70;99.90;;;;;;5042707;28;20759;-61
2023/04/03 06:42:13;;;;;;;9.13;2.40;;;-0.70;99.90;;;;;;5041511;28;20045;-60
2023/04/03 06:44:38;;;;;;;9.23;1.48;;;-0.70;99.90;;;;;;5040130;28;20069;-60
2023/04/03 06:47:04;;;;;;;9.43;2.90;;;-0.60;99.90;;;;;;5043360;28;20045;-62
2023/04/03 06:49:30;;;;;;;6.90;1.67;;;-0.60;99.90;;;;;;5045606;28;20037;-59
2023/04/03 06:51:56;;;;;;;7.13;1.85;;;-0.70;99.90;;;;;;5043518;28;20574;-62
2023/04/03 06:54:22;;;;;;;13.77;2.03;;;-0.70;99.90;;;;;;5043338;28;20036;-58
2023/04/03 06:56:48;;;;;;;10.05;3.40;;;-0.60;99.90;;;;;;5044279;28;20048;-62
2023/04/03 06:59:14;;;;;;;7.13;1.92;;;-0.60;99.90;;;;;;5046588;28;20033;-58
2023/04/03 07:01:41;;;;;;;6.28;1.80;;;-0.60;99.90;;;;;;5044674;28;20059;-61
2023/04/03 07:04:07;;;;;;;7.22;1.70;;;-0.40;99.90;;;;;;5043800;28;20394;-62
2023/04/03 07:06:34;;;;;;;9.98;1.80;;;-0.30;99.90;;;;;;5040956;28;20045;-61
2023/04/03 07:09:01;;;;;;;10.20;2.20;;;-0.30;99.90;;;;;;5042301;28;20041;-61
2023/04/03 07:11:27;;;;;;;10.45;1.90;;;-0.10;99.90;;;;;;5043036;28;20039;-61
2023/04/03 07:13:53;;;;;;;7.45;1.95;;;0.00;99.90;;;;;;5042946;28;20068;-60
2023/04/03 07:16:19;;;;;;;10.00;1.83;;;0.00;99.90;;;;;;5041199;28;20509;-59
2023/04/03 07:18:46;;;;;;;9.50;2.55;;;0.00;99.90;;;;;;5039054;28;20060;-62
2023/04/03 07:21:12;;;;;;;10.60;1.98;;;0.10;99.90;;;;;;5044749;28;20041;-60
2023/04/03 07:23:38;;;;;;;8.55;2.17;;;0.30;99.90;;;;;;5037299;28;20040;-62
2023/04/03 07:26:04;;;;;;;10.15;1.98;;;0.60;99.90;;;;;;5043197;28;20051;-63
2023/04/03 07:28:30;;;;;;;4.13;1.45;;;1.10;99.90;;;;;;5044990;28;20488;-60
2023/04/03 07:31:05;;;;;;;7.60;1.98;;;1.30;99.90;;;;;;5048669;28;20033;-61
2023/04/03 07:33:31;;;;;;;3.50;1.40;;;1.60;99.90;;;;;;5046827;28;20198;-62
2023/04/03 07:35:57;;;;;;;7.32;1.95;;;2.00;99.90;;;;;;5046641;28;20368;-62
2023/04/03 07:38:23;;;;;;;10.15;1.92;;;2.30;99.90;;;;;;5046297;28;20033;-62
2023/04/03 07:40:50;;;;;;;7.13;1.80;;;2.20;99.90;;;;;;5049186;28;20498;-62
2023/04/03 07:43:17;;;;;;;9.13;2.78;;;2.10;99.90;;;;;;5046438;28;20088;-62
2023/04/03 07:45:43;;;;;;;8.60;2.50;;;2.20;99.90;;;;;;5049309;28;20040;-63
2023/04/03 07:48:10;;;;;;;6.50;2.03;;;2.40;99.90;;;;;;5046744;28;20045;-63
2023/04/03 07:50:36;;;;;;;6.72;1.77;;;2.60;99.90;;;;;;5048327;28;20033;-60
2023/04/03 07:53:02;;;;;;;6.25;1.52;;;2.80;99.90;;;;;;5046719;28;20059;-61
2023/04/03 07:55:28;;;;;;;7.25;1.60;;;3.20;99.90;;;;;;5048229;28;20045;-62
2023/04/03 07:57:55;;;;;;;4.03;1.83;;;3.50;99.90;;;;;;5040359;28;20043;-63
2023/04/03 08:00:20;;;;;;;5.38;1.48;;;3.90;99.90;;;;;;5048543;28;20102;-60
2023/04/03 08:02:50;;;;;;;2.75;1.20;;;4.00;99.90;;;;;;5043552;28;20062;-61
2023/04/03 08:05:20;;;;;;;8.13;1.83;;;4.10;99.90;;;;;;5047243;28;20047;-63
2023/04/03 08:07:46;;;;;;;4.95;1.98;;;4.00;99.90;;;;;;5045633;28;20068;-62
2023/04/03 08:10:12;;;;;;;5.97;2.05;;;4.80;98.70;;;;;;5042725;28;20053;-66
2023/04/03 08:12:37;;;;;;;;;;;5.60;97.20;;;;;;5043150;28;20486;-63
2023/04/03 08:15:03;;;;;;;4.65;1.42;;;6.40;95.70;;;;;;5045123;28;19920;-64
2023/04/03 08:17:29;;;;;;;6.60;1.58;;;7.00;94.30;;;;;;5044170;28;20048;-63
2023/04/03 08:19:55;;;;;;;;;;;6.90;90.80;;;;;;5047537;28;20036;-64
2023/04/03 08:22:21;;;;;;;5.13;1.05;;;7.40;90.70;;;;;;5044997;28;19944;-63
2023/04/03 08:24:46;;;;;;;1.70;0.90;;;7.70;90.70;;;;;;5049068;28;20064;-64
2023/04/03 08:27:12;;;;;;;;;;;7.60;87.30;;;;;;5047402;28;20049;-63
2023/04/03 08:29:37;;;;;;;8.02;1.50;;;7.10;89.20;;;;;;5049285;28;19916;-65
2023/04/03 08:32:04;;;;;;;;;;;6.60;90.50;;;;;;5045869;28;20029;-64
2023/04/03 08:34:30;;;;;;;4.80;1.42;;;6.80;91.50;;;;;;5047134;28;20399;-64
2023/04/03 08:36:56;;;;;;;4.05;1.05;;;6.50;90.00;;;;;;5045460;28;20489;-64
2023/04/03 08:39:21;;;;;;;3.97;1.38;;;5.60;92.40;;;;;;5046311;28;20174;-63
2023/04/03 08:41:47;;;;;;;;;;;3.80;94.50;;;;;;5048448;28;20085;-61
2023/04/03 08:44:38;;;;;;;6.28;1.75;;;2.90;97.20;;;;;;5043260;28;19921;-63
2023/04/03 08:47:11;;;;;;;5.22;1.55;;;2.20;98.20;;;;;;5041063;28;20125;-64
2023/04/03 08:49:48;;;;;;;9.63;1.85;;;2.10;97.40;;;;;;5046816;28;20142;-64
2023/04/03 08:52:18;;;;;;;7.75;1.55;;;2.10;99.90;;;;;;5038732;28;20037;-63
2023/04/03 08:54:52;;;;;;;5.18;1.55;;;2.10;99.90;;;;;;5048058;28;20037;-59
2023/04/03 08:57:35;;;;;;;6.15;1.23;;;2.20;99.50;;;;;;5047453;28;20041;-59
2023/04/03 09:00:07;;;;;;;3.95;1.20;;;2.20;99.90;;;;;;5053775;28;20036;-62
2023/04/03 09:02:40;;;;;;;2.53;1.00;;;2.10;97.60;;;;;;5044188;28;20061;-63
2023/04/03 09:05:18;;;;;;;3.90;1.40;;;2.00;98.90;;;;;;5046386;28;20044;-62
2023/04/03 09:08:01;;;;;;;6.47;1.38;;;1.90;97.60;;;;;;5045893;28;20045;-63
2023/04/03 09:10:32;;;;;;;6.68;1.15;;;1.90;99.20;;;;;;5044102;28;20449;-62
2023/04/03 09:13:40;;;;;;;5.10;1.23;;;1.90;98.10;;;;;;5039100;28;20049;-63
2023/04/03 09:16:28;;;;;;;5.45;1.45;;;1.90;96.20;;;;;;5026691;28;20060;-63
2023/04/03 09:19:05;;;;;;;4.25;1.58;;;1.80;97.10;;;;;;5045047;28;20037;-64
2023/04/03 09:21:42;;;;;;;3.53;1.00;;;1.70;97.40;;;;;;5046829;28;20146;-62
2023/04/03 09:24:11;;;;;;;2.92;1.30;;;1.60;98.20;;;;;;5042772;28;20044;-64
2023/04/03 09:26:59;;;;;;;5.38;1.27;;;1.70;97.80;;;;;;5046732;28;20036;-64
2023/04/03 09:29:25;;;;;;;3.75;1.02;;;1.90;98.20;;;;;;5048833;28;20044;-65
2023/04/03 09:32:01;;;;;;;6.50;1.17;;;2.00;95.80;;;;;;5044983;28;20044;-64
2023/04/03 09:34:36;;;;;;;2.50;1.25;;;2.00;96.90;;;;;;5043598;28;20059;-65
2023/04/03 09:37:05;;;;;;;3.70;1.50;;;2.30;98.10;;;;;;5044231;28;20041;-63
2023/04/03 09:39:47;;;;;;;2.88;1.40;;;2.30;95.30;;;;;;5045909;28;20045;-64
2023/04/03 09:42:22;;;;;;;4.60;1.60;;;2.50;96.40;;;;;;5039941;28;20853;-65
2023/04/03 09:44:58;;;;;;;4.30;1.17;;;2.60;96.10;;;;;;5041611;28;20049;-64
2023/04/03 09:47:25;;;;;;;5.60;1.30;;;2.80;98.30;;;;;;5039956;28;20061;-64
2023/04/03 09:50:08;;;;;;;5.68;1.05;;;2.90;95.00;;;;;;5046503;28;20523;-63
2023/04/03 09:52:34;;;;;;;5.45;1.10;;;2.90;95.50;;;;;;5043261;28;20041;-65
2023/04/03 09:55:18;;;;;;;4.03;1.00;;;2.90;96.50;;;;;;5047901;28;20090;-63
2023/04/03 09:57:45;;;;;;;2.55;0.90;;;3.10;95.20;;;;;;5044720;28;20053;-63
2023/04/03 10:00:28;;;;;;;4.07;1.20;;;2.70;93.70;;;;;;5045309;28;20107;-65
2023/04/03 10:02:57;;;;;;;3.35;1.10;;;2.90;95.30;;;;;;5041467;28;20473;-64
2023/04/03 10:05:28;;;;;;;4.18;1.27;;;2.90;94.60;;;;;;5045831;28;20588;-65
2023/04/03 10:08:09;;;;;;;3.78;1.08;;;2.90;94.50;;;;;;5034572;28;20538;-62
2023/04/03 10:10:35;;;;;;;4.22;1.08;;;3.00;96.10;;;;;;5044202;28;20094;-63
2023/04/03 10:13:18;;;;;;;4.75;1.00;;;3.10;96.10;;;;;;5042482;28;20041;-65
2023/04/03 10:15:55;;;;;;;2.65;0.70;;;3.00;94.00;;;;;;5042230;28;20206;-64
2023/04/03 10:18:40;;;;;;;2.83;0.90;;;2.70;95.00;;;;;;5042419;28;20048;-65
2023/04/03 10:21:12;;;;;;;5.60;1.27;;;2.70;95.30;;;;;;5046339;28;20405;-64
2023/04/03 10:23:44;;;;;;;4.72;1.08;;;2.80;95.30;;;;;;5042417;28;20040;-65
2023/04/03 10:26:36;;;;;;;6.03;1.20;;;2.90;95.90;;;;;;5046588;28;20087;-63
2023/04/03 10:29:23;;;;;;;3.85;1.17;;;3.10;96.70;;;;;;5040573;28;20714;-62
2023/04/03 10:32:03;;;;;;;7.18;1.05;;;3.30;96.70;;;;;;5036514;28;20033;-65
2023/04/03 10:34:35;;;;;;;1.98;0.98;;;3.50;95.30;;;;;;5042493;28;20115;-64
2023/04/03 10:37:18;;;;;;;4.72;1.05;;;3.50;95.40;;;;;;5044430;28;20048;-63
2023/04/03 10:40:05;;;;;;;5.57;1.15;;;3.50;95.50;;;;;;5046089;28;20033;-64
2023/04/03 10:42:38;;;;;;;3.92;1.45;;;3.60;96.40;;;;;;5034555;28;20130;-65
2023/04/03 10:45:28;;;;;;;6.80;1.38;;;3.80;95.80;;;;;;5045654;28;20799;-64
2023/04/03 10:48:23;;;;;;;5.57;1.58;;;3.80;96.20;;;;;;5042391;28;20607;-65
2023/04/03 10:51:07;;;;;;;5.75;1.33;;;3.70;95.10;;;;;;5043140;28;20045;-65
2023/04/03 10:53:47;;;;;;;8.18;2.30;;;3.50;94.80;;;;;;5034138;28;20037;-65
2023/04/03 10:56:25;;;;;;;3.20;1.33;;;3.20;96.30;;;;;;5043786;28;20064;-66
2023/04/03 10:59:02;;;;;;;4.93;1.15;;;3.10;97.00;;;;;;5043646;28;20052;-64
2023/04/03 11:01:33;;;;;;;5.70;1.33;;;3.20;95.30;;;;;;5039302;28;20052;-65
2023/04/03 11:04:01;;;;;;;4.78;1.40;;;3.30;95.00;;;;;;5038976;28;20091;-66
2023/04/03 11:06:36;;;;;;;7.88;1.55;;;3.50;98.30;;;;;;5045147;28;20037;-65
2023/04/03 11:09:33;;;;;;;2.90;1.20;;;3.70;97.30;;;;;;5043621;28;20102;-63
2023/04/03 11:12:26;;;;;;;5.25;1.40;;;3.80;93.80;;;;;;5039108;28;20049;-64
2023/04/03 11:14:54;;;;;;;6.05;1.77;;;3.90;96.20;;;;;;5040674;28;20049;-67
2023/04/03 11:17:22;;;;;;;9.48;1.52;;;4.10;94.60;;;;;;5032861;28;20044;-65
2023/04/03 11:20:19;;;;;;;6.68;1.30;;;3.90;94.10;;;;;;5041445;28;20514;-66
2023/04/03 11:22:49;;;;;;;;;;;3.90;95.50;;;;;;5041575;28;20520;-65
2023/04/03 11:25:23;;;;;;;3.20;1.10;;;3.90;95.30;;;;;;5042228;28;20612;-63
2023/04/03 11:27:53;;;;;;;5.43;1.48;;;3.70;95.60;;;;;;5044022;28;20033;-64
2023/04/03 11:30:32;;;;;;;3.95;1.20;;;3.60;95.90;;;;;;5044404;28;20055;-65
2023/04/03 11:33:15;;;;;;;4.63;1.10;;;3.80;95.60;;;;;;5036891;28;20481;-64
2023/04/03 11:35:53;;;;;;;7.45;1.27;;;3.80;95.30;;;;;;5043556;28;20048;-65
2023/04/03 11:38:40;;;;;;;4.00;1.25;;;3.50;94.50;;;;;;5042121;28;20123;-64
2023/04/03 11:41:08;;;;;;;4.05;1.60;;;3.50;95.30;;;;;;5038997;28;20045;-65
2023/04/03 11:43:40;;;;;;;4.50;1.30;;;3.50;95.80;;;;;;5039569;28;20041;-64
2023/04/03 11:46:07;;;;;;;6.53;2.13;;;3.40;96.30;;;;;;5045500;28;20041;-63
2023/04/03 11:48:35;;;;;;;9.93;1.48;;;3.50;96.10;;;;;;5044223;28;20031;-63
2023/04/03 11:51:17;;;;;;;3.90;1.17;;;3.20;95.80;;;;;;5044803;28;20576;-64
2023/04/03 11:53:44;;;;;;;3.78;1.05;;;2.90;95.90;;;;;;5040374;28;20064;-63
2023/04/03 11:56:30;;;;;;;5.85;1.00;;;3.10;96.40;;;;;;5044013;28;20041;-63
2023/04/03 11:59:13;;;;;;;4.85;1.00;;;3.30;96.30;;;;;;5041304;28;20045;-64
2023/04/03 12:01:43;;;;;;;3.33;1.23;;;3.30;96.20;;;;;;5044147;28;20045;-64
2023/04/03 12:04:13;;;;;;;3.25;1.00;;;3.40;96.60;;;;;;5042663;28;20044;-63
2023/04/03 12:06:39;;;;;;;7.25;1.42;;;3.40;95.90;;;;;;5043190;28;20516;-65
2023/04/03 12:09:27;;;;;;;3.85;1.20;;;3.50;97.00;;;;;;5041792;28;20064;-66
2023/04/03 12:11:55;;;;;;;2.88;1.35;;;3.50;97.10;;;;;;5040887;28;20068;-65
2023/04/03 12:14:24;;;;;;;2.65;0.82;;;3.50;96.50;;;;;;5044079;28;20412;-64
2023/04/03 12:16:52;;;;;;;5.32;1.23;;;3.50;96.00;;;;;;5039930;28;20045;-65
2023/04/03 12:19:21;;;;;;;5.85;1.20;;;3.60;94.90;;;;;;5045884;28;20075;-65
2023/04/03 12:21:46;;;;;;;4.68;1.17;;;3.70;94.80;;;;;;5036718;28;20078;-63
2023/04/03 12:24:21;;;;;;;2.42;0.90;;;3.80;96.90;;;;;;5041578;28;20029;-63
2023/04/03 12:27:13;;;;;;;8.15;1.30;;;3.90;95.60;;;;;;5041064;28;20041;-62
2023/04/03 12:29:49;;;;;;;6.10;1.08;;;3.60;95.00;;;;;;5048743;28;20456;-62
2023/04/03 12:32:40;;;;;;;2.92;1.25;;;3.70;94.40;;;;;;5037830;28;20056;-64
2023/04/03 12:35:18;;;;;;;2.53;0.77;;;4.00;95.70;;;;;;5042269;28;20706;-62
2023/04/03 12:37:51;;;;;;;4.43;1.02;;;4.10;94.90;;;;;;5037291;28;20116;-62
2023/04/03 12:40:36;;;;;;;5.43;1.40;;;4.20;95.10;;;;;;5039654;28;20044;-63
2023/04/03 12:43:06;;;;;;;5.70;1.35;;;4.40;94.80;;;;;;5045073;28;20041;-63
2023/04/03 12:45:46;;;;;;;6.28;1.98;;;4.40;95.70;;;;;;5047625;28;20458;-62
2023/04/03 12:48:18;;;;;;;5.15;1.00;;;4.10;94.70;;;;;;5040397;28;20037;-62
2023/04/03 12:50:46;;;;;;;5.43;1.17;;;4.30;97.70;;;;;;5046684;28;20033;-63
2023/04/03 12:53:23;;;;;;;3.22;1.05;;;4.40;98.10;;;;;;5042124;28;20061;-62
2023/04/03 12:55:53;;;;;;;;;;;4.40;95.80;;;;;;5043239;28;20037;-63
2023/04/03 12:58:27;;;;;;;4.82;1.20;;;4.30;96.60;;;;;;5044975;28;19920;-63
2023/04/03 13:01:09;;;;;;;3.78;1.40;;;4.10;96.30;;;;;;5038566;28;20045;-62
2023/04/03 13:03:38;;;;;;;4.68;1.67;;;4.30;96.80;;;;;;5042997;28;20521;-60
2023/04/03 13:06:04;;;;;;;3.80;1.20;;;4.40;96.00;;;;;;5045654;28;20845;-64